Anthem Of The Seas — C6BI7 — position and weather

sailwx.info

Track history (hours):
 
Tides and Currents Weather Stations Pressure Air Temp Water Temp Dewpoint Dewpoint Depression Visibility Wind Speed Wind Dir Waves Ship Positions

Anthem Of The Seas

Last reported at 2017-Mar-27 06:08 UTC. Time now 2017-Mar-27 06:48 UTC.
Position N 38°28' W 074°11'.

Length 348 m; draft 8.8 m.

Type: Passenger vessel. MMSI: 311000274.

Date/timePositionNaut miles runAvg speedWind from/ knotsBaromVisibWave heightAir tempDewpointWater temp
2017-Mar-27 06:08N 38°28' W 074°11'1420.9
2017-Mar-27 05:29N 38°40' W 074°04'2320.9
2017-Mar-27 04:23N 39°02' W 073°54'1720.5
2017-Mar-27 03:33N 39°18' W 073°45'2920.3
2017-Mar-27 02:08N 39°44' W 073°31'1419.8
2017-Mar-27 01:27N 39°57' W 073°23'36 7.3
2017-Mar-26 20:33N 40°27' W 073°48'1313.1
2017-Mar-26 19:33N 40°35' W 074°02'5 5.5
2017-Mar-26 18:33N 40°40' W 074°04'0 0.0
2017-Mar-26 17:30N 40°40' W 074°04'0 0.0
2017-Mar-26 16:33N 40°40' W 074°04'0 0.0
2017-Mar-26 15:33N 40°40' W 074°04'0 0.0
2017-Mar-26 14:33N 40°40' W 074°04'0 0.0
2017-Mar-26 13:33N 40°40' W 074°04'0 0.0
2017-Mar-26 12:33N 40°40' W 074°04'0 0.0
2017-Mar-26 11:33N 40°40' W 074°04'0 0.0
2017-Mar-26 10:33N 40°40' W 074°04'1 0.8
2017-Mar-26 09:33N 40°39' W 074°03'1211.9
2017-Mar-26 08:33N 40°29' W 073°55'9 8.8
2017-Mar-26 07:33N 40°23' W 073°47'9 9.3
2017-Mar-26 06:33N 40°14' W 073°45'1211.8
2017-Mar-26 05:33N 40°02' W 073°43'1715.8
2017-Mar-26 04:28N 39°45' W 073°40'1614.9
2017-Mar-26 03:22N 39°29' W 073°43'45717.3
2017-Mar-25 01:00N 32°00' W 075°30'   120 / 251035.410.8 20.0 23.0
2017-Mar-22 01:33N 28°25' W 080°36'41 3.0
2017-Mar-21 12:00N 28°42' W 079°54'22120.1 260 / 131026.427.0 20.0 25.0
2017-Mar-21 01:00N 31°48' W 077°36'27519.7 290 / 121026.410.8 18.0 26.0
2017-Mar-20 11:00N 35°48' W 074°54'21521.5 360 / 251025.327.0 7.4 23.0
2017-Mar-20 01:00N 39°18' W 073°54'1224.9 030 / 81025.310.8 7.0 6.0
2017-Mar-20 00:31N 39°30' W 073°54'2020.5
2017-Mar-19 23:33N 39°50' W 073°51'3812.7
2017-Mar-19 20:33N 40°28' W 073°52'1212.4
2017-Mar-19 19:33N 40°37' W 074°03'3 3.1
2017-Mar-19 18:33N 40°40' W 074°04'0 0.0
2017-Mar-19 17:30N 40°40' W 074°04'0 0.0
2017-Mar-19 16:33N 40°40' W 074°04'0 0.0
2017-Mar-19 15:33N 40°40' W 074°04'0 0.0
2017-Mar-19 14:33N 40°40' W 074°04'0 0.0
2017-Mar-19 13:33N 40°40' W 074°04'0 0.0
2017-Mar-19 12:33N 40°40' W 074°04'0 0.0
2017-Mar-19 11:33N 40°40' W 074°04'0 0.0
2017-Mar-19 10:33N 40°40' W 074°04'2 2.5
2017-Mar-19 09:33N 40°38' W 074°03'1212.0
2017-Mar-19 08:33N 40°28' W 073°53'8 7.7
2017-Mar-19 07:33N 40°22' W 073°46'7 7.1
2017-Mar-19 06:33N 40°15' W 073°46'3410.3
2017-Mar-19 03:16N 39°42' W 073°40'1115.2
2017-Mar-19 02:33N 39°31' W 073°43'3112.3
2017-Mar-19 00:00N 39°00' W 073°48'   060 / 291021.3 5.4 10.0 6.0
Track history (hours):
 
Tides and Currents Weather Stations Pressure Air Temp Water Temp Dewpoint Dewpoint Depression Visibility Wind Speed Wind Dir Waves Ship Positions

Anthem Of The Seas

Last reported at 2017-Mar-27 06:08 UTC. Time now 2017-Mar-27 06:48 UTC.
Position N 38°28' W 074°11'.

Length 348 m; draft 8.8 m.

Type: Passenger vessel. MMSI: 311000274.

Date/timePositionNaut miles runAvg speedWind from/ knotsBaromVisibWave heightAir tempDewpointWater temp
2017-Mar-27 06:08N 38°28' W 074°11'1420.9
2017-Mar-27 05:29N 38°40' W 074°04'2320.9
2017-Mar-27 04:23N 39°02' W 073°54'1720.5
2017-Mar-27 03:33N 39°18' W 073°45'2920.3
2017-Mar-27 02:08N 39°44' W 073°31'1419.8
2017-Mar-27 01:27N 39°57' W 073°23'36 7.3
2017-Mar-26 20:33N 40°27' W 073°48'1313.1
2017-Mar-26 19:33N 40°35' W 074°02'5 5.5
2017-Mar-26 18:33N 40°40' W 074°04'0 0.0
2017-Mar-26 17:30N 40°40' W 074°04'0 0.0
2017-Mar-26 16:33N 40°40' W 074°04'0 0.0
2017-Mar-26 15:33N 40°40' W 074°04'0 0.0
2017-Mar-26 14:33N 40°40' W 074°04'0 0.0
2017-Mar-26 13:33N 40°40' W 074°04'0 0.0
2017-Mar-26 12:33N 40°40' W 074°04'0 0.0
2017-Mar-26 11:33N 40°40' W 074°04'0 0.0
2017-Mar-26 10:33N 40°40' W 074°04'1 0.8
2017-Mar-26 09:33N 40°39' W 074°03'1211.9
2017-Mar-26 08:33N 40°29' W 073°55'9 8.8
2017-Mar-26 07:33N 40°23' W 073°47'9 9.3
2017-Mar-26 06:33N 40°14' W 073°45'1211.8
2017-Mar-26 05:33N 40°02' W 073°43'1715.8
2017-Mar-26 04:28N 39°45' W 073°40'1614.9
2017-Mar-26 03:22N 39°29' W 073°43'45717.3
2017-Mar-25 01:00N 32°00' W 075°30'   120 / 251035.410.8 20.0 23.0
2017-Mar-22 01:33N 28°25' W 080°36'41 3.0
2017-Mar-21 12:00N 28°42' W 079°54'22120.1 260 / 131026.427.0 20.0 25.0
2017-Mar-21 01:00N 31°48' W 077°36'27519.7 290 / 121026.410.8 18.0 26.0
2017-Mar-20 11:00N 35°48' W 074°54'21521.5 360 / 251025.327.0 7.4 23.0
2017-Mar-20 01:00N 39°18' W 073°54'1224.9 030 / 81025.310.8 7.0 6.0
2017-Mar-20 00:31N 39°30' W 073°54'2020.5
2017-Mar-19 23:33N 39°50' W 073°51'3812.7
2017-Mar-19 20:33N 40°28' W 073°52'1212.4
2017-Mar-19 19:33N 40°37' W 074°03'3 3.1
2017-Mar-19 18:33N 40°40' W 074°04'0 0.0
2017-Mar-19 17:30N 40°40' W 074°04'0 0.0
2017-Mar-19 16:33N 40°40' W 074°04'0 0.0
2017-Mar-19 15:33N 40°40' W 074°04'0 0.0
2017-Mar-19 14:33N 40°40' W 074°04'0 0.0
2017-Mar-19 13:33N 40°40' W 074°04'0 0.0
2017-Mar-19 12:33N 40°40' W 074°04'0 0.0
2017-Mar-19 11:33N 40°40' W 074°04'0 0.0
2017-Mar-19 10:33N 40°40' W 074°04'2 2.5
2017-Mar-19 09:33N 40°38' W 074°03'1212.0
2017-Mar-19 08:33N 40°28' W 073°53'8 7.7
2017-Mar-19 07:33N 40°22' W 073°46'7 7.1
2017-Mar-19 06:33N 40°15' W 073°46'3410.3
2017-Mar-19 03:16N 39°42' W 073°40'1115.2
2017-Mar-19 02:33N 39°31' W 073°43'3112.3
2017-Mar-19 00:00N 39°00' W 073°48'   060 / 291021.3 5.4 10.0 6.0

Dump ship's entire track history